sensor_id;sensor_type;location;lat;lon;timestamp;temperature;humidity
957;DHT22;465;48.802;9.224;2022-11-15T00:02:22;10.30;99.90
957;DHT22;465;48.802;9.224;2022-11-15T00:04:48;10.20;99.90
957;DHT22;465;48.802;9.224;2022-11-15T00:07:15;10.20;99.90
957;DHT22;465;48.802;9.224;2022-11-15T00:09:42;10.20;99.90
957;DHT22;465;48.802;9.224;2022-11-15T00:12:08;10.20;99.90
957;DHT22;465;48.802;9.224;2022-11-15T00:14:35;10.20;99.90
957;DHT22;465;48.802;9.224;2022-11-15T00:17:03;10.20;99.90
957;DHT22;465;48.802;9.224;2022-11-15T00:19:30;10.30;99.90
957;DHT22;465;48.802;9.224;2022-11-15T00:21:57;10.20;99.90
957;DHT22;465;48.802;9.224;2022-11-15T00:24:23;10.20;99.90
957;DHT22;465;48.802;9.224;2022-11-15T00:26:50;10.20;99.90
957;DHT22;465;48.802;9.224;2022-11-15T00:29:17;10.20;99.90
957;DHT22;465;48.802;9.224;2022-11-15T00:34:49;10.20;99.90
957;DHT22;465;48.802;9.224;2022-11-15T00:37:15;10.10;99.90
957;DHT22;465;48.802;9.224;2022-11-15T00:39:42;10.10;99.90
957;DHT22;465;48.802;9.224;2022-11-15T00:42:09;10.10;99.90
957;DHT22;465;48.802;9.224;2022-11-15T00:44:35;10.10;99.90
957;DHT22;465;48.802;9.224;2022-11-15T00:47:02;10.10;99.90
957;DHT22;465;48.802;9.224;2022-11-15T00:49:29;10.00;99.90
957;DHT22;465;48.802;9.224;2022-11-15T00:51:57;10.00;99.90
957;DHT22;465;48.802;9.224;2022-11-15T00:54:24;10.00;99.90
957;DHT22;465;48.802;9.224;2022-11-15T00:56:50;10.00;99.90
957;DHT22;465;48.802;9.224;2022-11-15T00:59:17;10.00;99.90
957;DHT22;465;48.802;9.224;2022-11-15T01:01:50;10.00;99.90
957;DHT22;465;48.802;9.224;2022-11-15T01:04:17;9.90;99.90
957;DHT22;465;48.802;9.224;2022-11-15T01:06:43;9.90;99.90
957;DHT22;465;48.802;9.224;2022-11-15T01:09:12;9.90;99.90
957;DHT22;465;48.802;9.224;2022-11-15T01:11:39;9.80;99.90
957;DHT22;465;48.802;9.224;2022-11-15T01:14:06;9.80;99.90
957;DHT22;465;48.802;9.224;2022-11-15T01:16:33;9.80;99.90
957;DHT22;465;48.802;9.224;2022-11-15T01:19:00;9.80;99.90
957;DHT22;465;48.802;9.224;2022-11-15T01:21:27;9.70;99.90
957;DHT22;465;48.802;9.224;2022-11-15T01:23:54;9.70;99.90
957;DHT22;465;48.802;9.224;2022-11-15T01:26:23;9.60;99.90
957;DHT22;465;48.802;9.224;2022-11-15T01:28:50;9.60;99.90
957;DHT22;465;48.802;9.224;2022-11-15T01:31:18;9.50;99.90
957;DHT22;465;48.802;9.224;2022-11-15T01:33:46;9.40;99.90
957;DHT22;465;48.802;9.224;2022-11-15T01:36:16;9.30;99.90
957;DHT22;465;48.802;9.224;2022-11-15T01:38:43;9.20;99.90
957;DHT22;465;48.802;9.224;2022-11-15T01:41:15;9.20;99.90
957;DHT22;465;48.802;9.224;2022-11-15T01:43:44;9.10;99.90
957;DHT22;465;48.802;9.224;2022-11-15T01:46:30;9.20;99.90
957;DHT22;465;48.802;9.224;2022-11-15T01:49:02;9.10;99.90
957;DHT22;465;48.802;9.224;2022-11-15T01:51:32;9.10;99.90
957;DHT22;465;48.802;9.224;2022-11-15T01:54:02;8.90;99.90
957;DHT22;465;48.802;9.224;2022-11-15T01:56:32;8.90;99.90
957;DHT22;465;48.802;9.224;2022-11-15T01:59:03;8.80;99.90
957;DHT22;465;48.802;9.224;2022-11-15T02:01:31;8.70;99.90
957;DHT22;465;48.802;9.224;2022-11-15T02:04:02;8.70;99.90
957;DHT22;465;48.802;9.224;2022-11-15T02:06:30;8.60;99.90
957;DHT22;465;48.802;9.224;2022-11-15T02:08:57;8.70;99.90
957;DHT22;465;48.802;9.224;2022-11-15T02:11:25;8.70;99.90
957;DHT22;465;48.802;9.224;2022-11-15T02:13:52;8.80;99.90
957;DHT22;465;48.802;9.224;2022-11-15T02:16:26;8.80;99.90
957;DHT22;465;48.802;9.224;2022-11-15T02:18:59;8.80;99.90
957;DHT22;465;48.802;9.224;2022-11-15T02:21:31;8.90;99.90
957;DHT22;465;48.802;9.224;2022-11-15T02:30:15;9.00;99.90
957;DHT22;465;48.802;9.224;2022-11-15T02:32:45;8.90;99.90
957;DHT22;465;48.802;9.224;2022-11-15T02:35:21;9.00;99.90
957;DHT22;465;48.802;9.224;2022-11-15T02:37:54;8.90;99.90
957;DHT22;465;48.802;9.224;2022-11-15T02:40:30;9.00;99.90
957;DHT22;465;48.802;9.224;2022-11-15T02:43:04;9.00;99.90
957;DHT22;465;48.802;9.224;2022-11-15T02:45:59;9.10;99.90
957;DHT22;465;48.802;9.224;2022-11-15T02:48:28;8.90;99.90
957;DHT22;465;48.802;9.224;2022-11-15T02:50:55;8.90;99.90
957;DHT22;465;48.802;9.224;2022-11-15T02:53:24;8.80;99.90
957;DHT22;465;48.802;9.224;2022-11-15T02:55:53;8.80;99.90
957;DHT22;465;48.802;9.224;2022-11-15T02:58:41;8.70;99.90
957;DHT22;465;48.802;9.224;2022-11-15T03:01:14;8.80;99.90
957;DHT22;465;48.802;9.224;2022-11-15T03:03:54;8.80;99.90
957;DHT22;465;48.802;9.224;2022-11-15T03:06:34;8.80;99.90
957;DHT22;465;48.802;9.224;2022-11-15T03:09:05;8.80;99.90
957;DHT22;465;48.802;9.224;2022-11-15T03:11:37;8.90;99.90
957;DHT22;465;48.802;9.224;2022-11-15T03:14:12;8.80;99.90
957;DHT22;465;48.802;9.224;2022-11-15T03:16:46;8.80;99.90
957;DHT22;465;48.802;9.224;2022-11-15T03:19:17;8.70;99.90
957;DHT22;465;48.802;9.224;2022-11-15T03:21:46;8.60;99.90
957;DHT22;465;48.802;9.224;2022-11-15T03:24:15;8.60;99.90
957;DHT22;465;48.802;9.224;2022-11-15T03:26:45;8.50;99.90
957;DHT22;465;48.802;9.224;2022-11-15T03:29:17;8.50;99.90
957;DHT22;465;48.802;9.224;2022-11-15T03:31:50;8.50;99.90
957;DHT22;465;48.802;9.224;2022-11-15T03:34:22;8.50;99.90
957;DHT22;465;48.802;9.224;2022-11-15T03:36:53;8.50;99.90
957;DHT22;465;48.802;9.224;2022-11-15T03:39:20;8.50;99.90
957;DHT22;465;48.802;9.224;2022-11-15T03:41:50;8.50;99.90
957;DHT22;465;48.802;9.224;2022-11-15T03:44:28;8.50;99.90
957;DHT22;465;48.802;9.224;2022-11-15T03:47:03;8.50;99.90
957;DHT22;465;48.802;9.224;2022-11-15T03:49:33;8.50;99.90
957;DHT22;465;48.802;9.224;2022-11-15T03:52:03;8.40;99.90
957;DHT22;465;48.802;9.224;2022-11-15T03:54:30;8.40;99.90
957;DHT22;465;48.802;9.224;2022-11-15T03:56:57;8.50;99.90
957;DHT22;465;48.802;9.224;2022-11-15T03:59:23;8.40;99.90
957;DHT22;465;48.802;9.224;2022-11-15T04:01:50;8.40;99.90
957;DHT22;465;48.802;9.224;2022-11-15T04:04:18;8.40;99.90
957;DHT22;465;48.802;9.224;2022-11-15T04:06:45;8.40;99.90
957;DHT22;465;48.802;9.224;2022-11-15T04:09:12;8.40;99.90
957;DHT22;465;48.802;9.224;2022-11-15T04:11:39;8.50;99.90
957;DHT22;465;48.802;9.224;2022-11-15T04:14:05;8.50;99.90
957;DHT22;465;48.802;9.224;2022-11-15T04:16:32;8.60;99.90
957;DHT22;465;48.802;9.224;2022-11-15T04:19:01;8.60;99.90
957;DHT22;465;48.802;9.224;2022-11-15T04:21:47;8.60;99.90
957;DHT22;465;48.802;9.224;2022-11-15T04:24:31;8.50;99.90
957;DHT22;465;48.802;9.224;2022-11-15T04:26:58;8.50;99.90
957;DHT22;465;48.802;9.224;2022-11-15T04:29:25;8.40;99.90
957;DHT22;465;48.802;9.224;2022-11-15T04:32:01;8.40;99.90
957;DHT22;465;48.802;9.224;2022-11-15T04:34:27;8.40;99.90
957;DHT22;465;48.802;9.224;2022-11-15T04:36:56;8.40;99.90
957;DHT22;465;48.802;9.224;2022-11-15T04:39:38;8.40;99.90
957;DHT22;465;48.802;9.224;2022-11-15T04:42:05;8.40;99.90
957;DHT22;465;48.802;9.224;2022-11-15T04:44:32;8.30;99.90
957;DHT22;465;48.802;9.224;2022-11-15T04:46:59;8.40;99.90
957;DHT22;465;48.802;9.224;2022-11-15T04:49:26;8.40;99.90
957;DHT22;465;48.802;9.224;2022-11-15T04:51:53;8.30;99.90
957;DHT22;465;48.802;9.224;2022-11-15T04:54:21;8.30;99.90
957;DHT22;465;48.802;9.224;2022-11-15T04:56:47;8.30;99.90
957;DHT22;465;48.802;9.224;2022-11-15T04:59:14;8.30;99.90
957;DHT22;465;48.802;9.224;2022-11-15T05:01:41;8.20;99.90
957;DHT22;465;48.802;9.224;2022-11-15T05:04:07;8.20;99.90
957;DHT22;465;48.802;9.224;2022-11-15T05:06:47;8.20;99.90
957;DHT22;465;48.802;9.224;2022-11-15T05:09:13;8.30;99.90
957;DHT22;465;48.802;9.224;2022-11-15T05:11:42;8.40;99.90
957;DHT22;465;48.802;9.224;2022-11-15T05:14:09;8.40;99.90
957;DHT22;465;48.802;9.224;2022-11-15T05:16:35;8.40;99.90
957;DHT22;465;48.802;9.224;2022-11-15T05:19:03;8.40;99.90
957;DHT22;465;48.802;9.224;2022-11-15T05:21:30;8.40;99.90
957;DHT22;465;48.802;9.224;2022-11-15T05:23:57;8.40;99.90
957;DHT22;465;48.802;9.224;2022-11-15T05:26:24;8.40;99.90
957;DHT22;465;48.802;9.224;2022-11-15T05:28:57;8.30;99.90
957;DHT22;465;48.802;9.224;2022-11-15T05:31:33;8.20;99.90
957;DHT22;465;48.802;9.224;2022-11-15T05:34:00;8.10;99.90
957;DHT22;465;48.802;9.224;2022-11-15T05:36:33;8.10;99.90
957;DHT22;465;48.802;9.224;2022-11-15T05:39:03;8.10;99.90
957;DHT22;465;48.802;9.224;2022-11-15T05:41:32;8.20;99.90
957;DHT22;465;48.802;9.224;2022-11-15T05:44:03;8.30;99.90
957;DHT22;465;48.802;9.224;2022-11-15T05:46:33;8.30;99.90
957;DHT22;465;48.802;9.224;2022-11-15T05:49:00;8.30;99.90
957;DHT22;465;48.802;9.224;2022-11-15T05:51:28;8.30;99.90
957;DHT22;465;48.802;9.224;2022-11-15T05:53:57;8.30;99.90
957;DHT22;465;48.802;9.224;2022-11-15T05:56:24;8.40;99.90
957;DHT22;465;48.802;9.224;2022-11-15T05:58:52;8.40;99.90
957;DHT22;465;48.802;9.224;2022-11-15T06:01:21;8.30;99.90
957;DHT22;465;48.802;9.224;2022-11-15T06:03:47;8.30;99.90
957;DHT22;465;48.802;9.224;2022-11-15T06:06:14;8.40;99.90
957;DHT22;465;48.802;9.224;2022-11-15T06:08:41;8.50;99.90
957;DHT22;465;48.802;9.224;2022-11-15T06:11:08;8.50;99.90
957;DHT22;465;48.802;9.224;2022-11-15T06:13:35;8.50;99.90
957;DHT22;465;48.802;9.224;2022-11-15T06:16:02;8.50;99.90
957;DHT22;465;48.802;9.224;2022-11-15T06:18:31;8.60;99.90
957;DHT22;465;48.802;9.224;2022-11-15T06:20:59;8.60;99.90
957;DHT22;465;48.802;9.224;2022-11-15T06:23:26;8.60;99.90
957;DHT22;465;48.802;9.224;2022-11-15T06:25:52;8.60;99.90
957;DHT22;465;48.802;9.224;2022-11-15T06:28:20;8.60;99.90
957;DHT22;465;48.802;9.224;2022-11-15T06:30:46;8.60;99.90
957;DHT22;465;48.802;9.224;2022-11-15T06:33:16;8.60;99.90
957;DHT22;465;48.802;9.224;2022-11-15T06:35:44;8.60;99.90
957;DHT22;465;48.802;9.224;2022-11-15T06:38:11;8.50;99.90
957;DHT22;465;48.802;9.224;2022-11-15T06:40:38;8.50;99.90
957;DHT22;465;48.802;9.224;2022-11-15T06:43:06;8.60;99.90
957;DHT22;465;48.802;9.224;2022-11-15T06:45:33;8.60;99.90
957;DHT22;465;48.802;9.224;2022-11-15T06:48:00;8.60;99.90
957;DHT22;465;48.802;9.224;2022-11-15T06:50:27;8.60;99.90
957;DHT22;465;48.802;9.224;2022-11-15T06:52:55;8.60;99.90
957;DHT22;465;48.802;9.224;2022-11-15T06:55:26;8.60;99.90
957;DHT22;465;48.802;9.224;2022-11-15T06:57:53;8.70;99.90
957;DHT22;465;48.802;9.224;2022-11-15T07:00:21;8.60;99.90
957;DHT22;465;48.802;9.224;2022-11-15T07:02:48;8.60;99.90
957;DHT22;465;48.802;9.224;2022-11-15T07:05:15;8.70;99.90
957;DHT22;465;48.802;9.224;2022-11-15T07:07:42;8.70;99.90
957;DHT22;465;48.802;9.224;2022-11-15T07:10:10;8.80;99.90
957;DHT22;465;48.802;9.224;2022-11-15T07:12:45;8.80;99.90
957;DHT22;465;48.802;9.224;2022-11-15T07:15:21;8.80;99.90
957;DHT22;465;48.802;9.224;2022-11-15T07:17:48;8.90;99.90
957;DHT22;465;48.802;9.224;2022-11-15T07:20:16;8.90;99.90
957;DHT22;465;48.802;9.224;2022-11-15T07:22:43;8.90;99.90
957;DHT22;465;48.802;9.224;2022-11-15T07:25:11;9.10;99.90
957;DHT22;465;48.802;9.224;2022-11-15T07:27:40;9.10;99.90
957;DHT22;465;48.802;9.224;2022-11-15T07:30:14;9.30;99.90
957;DHT22;465;48.802;9.224;2022-11-15T07:32:41;9.40;99.90
957;DHT22;465;48.802;9.224;2022-11-15T07:35:08;9.50;99.90
957;DHT22;465;48.802;9.224;2022-11-15T07:37:35;9.60;99.90
957;DHT22;465;48.802;9.224;2022-11-15T07:40:01;9.70;99.90
957;DHT22;465;48.802;9.224;2022-11-15T07:42:32;9.90;99.90
957;DHT22;465;48.802;9.224;2022-11-15T07:45:16;10.00;99.90
957;DHT22;465;48.802;9.224;2022-11-15T07:47:45;10.10;99.90
957;DHT22;465;48.802;9.224;2022-11-15T07:50:12;10.40;99.90
957;DHT22;465;48.802;9.224;2022-11-15T07:52:38;10.60;99.90
957;DHT22;465;48.802;9.224;2022-11-15T07:55:06;10.90;99.90
957;DHT22;465;48.802;9.224;2022-11-15T07:57:35;11.10;99.90
957;DHT22;465;48.802;9.224;2022-11-15T08:00:02;11.40;99.90
957;DHT22;465;48.802;9.224;2022-11-15T08:02:29;11.50;99.90
957;DHT22;465;48.802;9.224;2022-11-15T08:04:56;11.50;99.90
957;DHT22;465;48.802;9.224;2022-11-15T08:07:23;11.50;99.90
957;DHT22;465;48.802;9.224;2022-11-15T08:09:49;11.50;99.90
957;DHT22;465;48.802;9.224;2022-11-15T08:12:16;11.40;99.90
957;DHT22;465;48.802;9.224;2022-11-15T08:14:44;11.60;99.90
957;DHT22;465;48.802;9.224;2022-11-15T08:17:11;11.80;99.90
957;DHT22;465;48.802;9.224;2022-11-15T08:19:38;12.10;99.90
957;DHT22;465;48.802;9.224;2022-11-15T08:22:04;12.20;99.90
957;DHT22;465;48.802;9.224;2022-11-15T08:24:31;12.40;99.90
957;DHT22;465;48.802;9.224;2022-11-15T08:26:58;12.40;99.90
957;DHT22;465;48.802;9.224;2022-11-15T08:29:24;12.20;99.90
957;DHT22;465;48.802;9.224;2022-11-15T08:31:54;12.30;99.90
957;DHT22;465;48.802;9.224;2022-11-15T08:34:21;12.40;99.90
957;DHT22;465;48.802;9.224;2022-11-15T08:36:48;12.60;99.90
957;DHT22;465;48.802;9.224;2022-11-15T08:39:14;12.90;99.90
957;DHT22;465;48.802;9.224;2022-11-15T08:41:41;13.30;99.90
957;DHT22;465;48.802;9.224;2022-11-15T08:44:08;13.60;99.90
957;DHT22;465;48.802;9.224;2022-11-15T08:46:35;13.80;99.90
957;DHT22;465;48.802;9.224;2022-11-15T08:49:03;14.20;99.90
957;DHT22;465;48.802;9.224;2022-11-15T08:51:29;14.30;99.90
957;DHT22;465;48.802;9.224;2022-11-15T08:53:56;14.40;99.90
957;DHT22;465;48.802;9.224;2022-11-15T08:56:23;14.20;99.90
957;DHT22;465;48.802;9.224;2022-11-15T08:58:49;14.30;99.90
957;DHT22;465;48.802;9.224;2022-11-15T09:01:18;14.10;99.90
957;DHT22;465;48.802;9.224;2022-11-15T09:03:45;14.20;99.90
957;DHT22;465;48.802;9.224;2022-11-15T09:06:13;14.60;99.90
957;DHT22;465;48.802;9.224;2022-11-15T09:08:40;15.40;99.90
957;DHT22;465;48.802;9.224;2022-11-15T09:11:09;15.80;99.90
957;DHT22;465;48.802;9.224;2022-11-15T09:13:36;16.20;99.90
957;DHT22;465;48.802;9.224;2022-11-15T09:16:04;16.30;99.40
957;DHT22;465;48.802;9.224;2022-11-15T09:18:30;16.50;98.60
957;DHT22;465;48.802;9.224;2022-11-15T09:20:58;16.50;98.40
957;DHT22;465;48.802;9.224;2022-11-15T09:23:27;16.20;97.80
957;DHT22;465;48.802;9.224;2022-11-15T09:25:58;16.00;98.00
957;DHT22;465;48.802;9.224;2022-11-15T09:28:25;16.40;98.80
957;DHT22;465;48.802;9.224;2022-11-15T09:30:56;16.40;97.90
957;DHT22;465;48.802;9.224;2022-11-15T09:33:23;16.70;98.00
957;DHT22;465;48.802;9.224;2022-11-15T09:35:50;16.60;97.30
957;DHT22;465;48.802;9.224;2022-11-15T09:38:16;16.80;97.80
957;DHT22;465;48.802;9.224;2022-11-15T09:40:51;17.10;97.00
957;DHT22;465;48.802;9.224;2022-11-15T09:43:32;17.70;96.40
957;DHT22;465;48.802;9.224;2022-11-15T09:46:08;18.00;95.30
957;DHT22;465;48.802;9.224;2022-11-15T09:48:53;18.20;94.70
957;DHT22;465;48.802;9.224;2022-11-15T09:51:27;18.20;94.60
957;DHT22;465;48.802;9.224;2022-11-15T09:54:03;18.00;94.40
957;DHT22;465;48.802;9.224;2022-11-15T09:56:35;18.00;94.90
957;DHT22;465;48.802;9.224;2022-11-15T09:59:15;18.60;93.80
957;DHT22;465;48.802;9.224;2022-11-15T10:01:50;19.20;93.00
957;DHT22;465;48.802;9.224;2022-11-15T10:04:20;20.10;91.90
957;DHT22;465;48.802;9.224;2022-11-15T10:06:52;20.60;90.10
957;DHT22;465;48.802;9.224;2022-11-15T10:09:25;21.00;89.40
957;DHT22;465;48.802;9.224;2022-11-15T10:11:54;20.50;88.30
957;DHT22;465;48.802;9.224;2022-11-15T10:14:23;19.30;90.00
957;DHT22;465;48.802;9.224;2022-11-15T10:17:11;18.40;91.00
957;DHT22;465;48.802;9.224;2022-11-15T10:19:48;17.80;91.80
957;DHT22;465;48.802;9.224;2022-11-15T10:22:24;17.20;93.30
957;DHT22;465;48.802;9.224;2022-11-15T10:25:06;16.60;93.60
957;DHT22;465;48.802;9.224;2022-11-15T10:27:39;16.40;94.70
957;DHT22;465;48.802;9.224;2022-11-15T10:30:11;16.10;95.60
957;DHT22;465;48.802;9.224;2022-11-15T10:32:39;15.90;96.20
957;DHT22;465;48.802;9.224;2022-11-15T10:35:17;15.90;96.90
957;DHT22;465;48.802;9.224;2022-11-15T10:37:44;16.00;96.50
957;DHT22;465;48.802;9.224;2022-11-15T10:40:17;15.80;96.40
957;DHT22;465;48.802;9.224;2022-11-15T10:42:46;15.80;97.00
957;DHT22;465;48.802;9.224;2022-11-15T10:45:31;16.00;97.00
957;DHT22;465;48.802;9.224;2022-11-15T10:48:22;16.00;96.70
957;DHT22;465;48.802;9.224;2022-11-15T10:50:50;16.10;97.00
957;DHT22;465;48.802;9.224;2022-11-15T10:53:24;16.00;96.90
957;DHT22;465;48.802;9.224;2022-11-15T10:55:55;16.10;96.80
957;DHT22;465;48.802;9.224;2022-11-15T10:58:34;16.00;96.80
957;DHT22;465;48.802;9.224;2022-11-15T11:01:13;16.00;96.70
957;DHT22;465;48.802;9.224;2022-11-15T11:03:42;15.90;97.00
957;DHT22;465;48.802;9.224;2022-11-15T11:06:11;15.80;97.60
957;DHT22;465;48.802;9.224;2022-11-15T11:08:38;15.80;97.10
957;DHT22;465;48.802;9.224;2022-11-15T11:11:06;15.70;97.20
957;DHT22;465;48.802;9.224;2022-11-15T11:13:37;15.60;97.40
957;DHT22;465;48.802;9.224;2022-11-15T11:16:32;15.60;97.50
957;DHT22;465;48.802;9.224;2022-11-15T11:19:08;15.60;97.30
957;DHT22;465;48.802;9.224;2022-11-15T11:21:44;15.50;97.40
957;DHT22;465;48.802;9.224;2022-11-15T11:24:21;15.50;97.90
957;DHT22;465;48.802;9.224;2022-11-15T11:27:02;15.70;98.10
957;DHT22;465;48.802;9.224;2022-11-15T11:29:45;15.70;97.80
957;DHT22;465;48.802;9.224;2022-11-15T11:32:30;15.70;97.40
957;DHT22;465;48.802;9.224;2022-11-15T11:35:03;15.90;97.40
957;DHT22;465;48.802;9.224;2022-11-15T11:37:37;16.10;97.40
957;DHT22;465;48.802;9.224;2022-11-15T11:40:16;16.30;97.20
957;DHT22;465;48.802;9.224;2022-11-15T11:42:53;16.50;96.90
957;DHT22;465;48.802;9.224;2022-11-15T11:48:41;16.70;96.10
957;DHT22;465;48.802;9.224;2022-11-15T11:51:13;16.60;96.20
957;DHT22;465;48.802;9.224;2022-11-15T11:53:47;16.50;96.00
957;DHT22;465;48.802;9.224;2022-11-15T11:56:23;16.60;96.30
957;DHT22;465;48.802;9.224;2022-11-15T11:58:53;16.60;96.40
957;DHT22;465;48.802;9.224;2022-11-15T12:01:23;16.60;96.70
957;DHT22;465;48.802;9.224;2022-11-15T12:03:55;16.60;96.30
957;DHT22;465;48.802;9.224;2022-11-15T12:06:30;16.60;96.70
957;DHT22;465;48.802;9.224;2022-11-15T12:09:01;16.60;96.80
957;DHT22;465;48.802;9.224;2022-11-15T12:11:30;16.80;96.30
957;DHT22;465;48.802;9.224;2022-11-15T12:14:05;16.90;95.90
957;DHT22;465;48.802;9.224;2022-11-15T12:16:38;17.40;95.70
957;DHT22;465;48.802;9.224;2022-11-15T12:19:08;17.50;94.90
957;DHT22;465;48.802;9.224;2022-11-15T12:21:41;17.50;95.10
957;DHT22;465;48.802;9.224;2022-11-15T12:24:13;17.40;95.00
957;DHT22;465;48.802;9.224;2022-11-15T12:26:48;17.10;95.20
957;DHT22;465;48.802;9.224;2022-11-15T12:29:19;16.90;95.70
957;DHT22;465;48.802;9.224;2022-11-15T12:31:51;16.70;96.00
957;DHT22;465;48.802;9.224;2022-11-15T12:34:43;16.50;96.60
957;DHT22;465;48.802;9.224;2022-11-15T12:40:26;16.20;97.40
957;DHT22;465;48.802;9.224;2022-11-15T12:43:03;16.00;97.70
957;DHT22;465;48.802;9.224;2022-11-15T12:45:32;16.00;97.70
957;DHT22;465;48.802;9.224;2022-11-15T12:51:05;15.90;97.70
957;DHT22;465;48.802;9.224;2022-11-15T12:53:33;15.90;98.00
957;DHT22;465;48.802;9.224;2022-11-15T12:56:19;15.90;98.00
957;DHT22;465;48.802;9.224;2022-11-15T12:58:47;15.90;98.20
957;DHT22;465;48.802;9.224;2022-11-15T13:04:22;16.00;98.40
957;DHT22;465;48.802;9.224;2022-11-15T13:06:53;15.90;98.60
957;DHT22;465;48.802;9.224;2022-11-15T13:09:52;15.90;98.70
957;DHT22;465;48.802;9.224;2022-11-15T13:12:49;15.80;98.90
957;DHT22;465;48.802;9.224;2022-11-15T13:15:32;15.80;98.90
957;DHT22;465;48.802;9.224;2022-11-15T13:18:27;15.80;99.30
957;DHT22;465;48.802;9.224;2022-11-15T13:20:54;15.80;99.30
957;DHT22;465;48.802;9.224;2022-11-15T13:23:23;15.80;99.30
957;DHT22;465;48.802;9.224;2022-11-15T13:26:10;15.70;99.10
957;DHT22;465;48.802;9.224;2022-11-15T13:28:42;15.60;99.30
957;DHT22;465;48.802;9.224;2022-11-15T13:31:33;15.70;99.80
957;DHT22;465;48.802;9.224;2022-11-15T13:34:02;15.60;99.70
957;DHT22;465;48.802;9.224;2022-11-15T13:36:31;15.60;99.90
957;DHT22;465;48.802;9.224;2022-11-15T13:39:02;15.60;99.80
957;DHT22;465;48.802;9.224;2022-11-15T13:41:31;15.70;99.90
957;DHT22;465;48.802;9.224;2022-11-15T13:43:59;15.60;99.90
957;DHT22;465;48.802;9.224;2022-11-15T13:46:27;15.60;99.90
957;DHT22;465;48.802;9.224;2022-11-15T13:48:56;15.60;99.90
957;DHT22;465;48.802;9.224;2022-11-15T13:51:35;15.60;99.90
957;DHT22;465;48.802;9.224;2022-11-15T13:54:09;15.60;99.90
957;DHT22;465;48.802;9.224;2022-11-15T13:56:44;15.60;99.90
957;DHT22;465;48.802;9.224;2022-11-15T13:59:18;15.50;99.90
957;DHT22;465;48.802;9.224;2022-11-15T14:01:49;15.50;99.90
957;DHT22;465;48.802;9.224;2022-11-15T14:04:20;15.50;99.90
957;DHT22;465;48.802;9.224;2022-11-15T14:06:50;15.50;99.90
957;DHT22;465;48.802;9.224;2022-11-15T14:09:31;15.40;99.90
957;DHT22;465;48.802;9.224;2022-11-15T14:11:59;15.30;99.90
957;DHT22;465;48.802;9.224;2022-11-15T14:14:27;15.30;99.90
957;DHT22;465;48.802;9.224;2022-11-15T14:16:55;15.20;99.90
957;DHT22;465;48.802;9.224;2022-11-15T14:19:39;15.10;99.90
957;DHT22;465;48.802;9.224;2022-11-15T14:22:11;15.00;99.90
957;DHT22;465;48.802;9.224;2022-11-15T14:24:41;15.00;99.90
957;DHT22;465;48.802;9.224;2022-11-15T14:27:19;14.90;99.90
957;DHT22;465;48.802;9.224;2022-11-15T14:29:47;14.90;99.90
957;DHT22;465;48.802;9.224;2022-11-15T14:32:16;14.80;99.90
957;DHT22;465;48.802;9.224;2022-11-15T14:34:44;14.90;99.90
957;DHT22;465;48.802;9.224;2022-11-15T14:37:19;14.80;99.90
957;DHT22;465;48.802;9.224;2022-11-15T14:39:49;14.80;99.90
957;DHT22;465;48.802;9.224;2022-11-15T14:42:16;14.80;99.90
957;DHT22;465;48.802;9.224;2022-11-15T14:44:43;14.80;99.90
957;DHT22;465;48.802;9.224;2022-11-15T14:47:09;14.70;99.90
957;DHT22;465;48.802;9.224;2022-11-15T14:49:36;14.70;99.90
957;DHT22;465;48.802;9.224;2022-11-15T14:52:22;14.70;99.90
957;DHT22;465;48.802;9.224;2022-11-15T14:54:51;14.70;99.90
957;DHT22;465;48.802;9.224;2022-11-15T14:57:18;14.60;99.90
957;DHT22;465;48.802;9.224;2022-11-15T14:59:45;14.50;99.90
957;DHT22;465;48.802;9.224;2022-11-15T15:02:16;14.50;99.90
957;DHT22;465;48.802;9.224;2022-11-15T15:04:44;14.50;99.90
957;DHT22;465;48.802;9.224;2022-11-15T15:07:10;14.50;99.90
957;DHT22;465;48.802;9.224;2022-11-15T15:09:37;14.50;99.90
957;DHT22;465;48.802;9.224;2022-11-15T15:12:09;14.40;99.90
957;DHT22;465;48.802;9.224;2022-11-15T15:14:37;14.40;99.90
957;DHT22;465;48.802;9.224;2022-11-15T15:17:04;14.40;99.90
957;DHT22;465;48.802;9.224;2022-11-15T15:19:31;14.30;99.90
957;DHT22;465;48.802;9.224;2022-11-15T15:21:57;14.30;99.90
957;DHT22;465;48.802;9.224;2022-11-15T15:24:24;14.20;99.90
957;DHT22;465;48.802;9.224;2022-11-15T15:26:51;14.20;99.90
957;DHT22;465;48.802;9.224;2022-11-15T15:29:19;14.20;99.90
957;DHT22;465;48.802;9.224;2022-11-15T15:31:46;14.20;99.90
957;DHT22;465;48.802;9.224;2022-11-15T15:34:12;14.20;99.90
957;DHT22;465;48.802;9.224;2022-11-15T15:36:39;14.20;99.90
957;DHT22;465;48.802;9.224;2022-11-15T15:39:09;14.10;99.90
957;DHT22;465;48.802;9.224;2022-11-15T15:41:36;14.10;99.90
957;DHT22;465;48.802;9.224;2022-11-15T15:44:03;14.10;99.90
957;DHT22;465;48.802;9.224;2022-11-15T15:46:31;14.10;99.90
957;DHT22;465;48.802;9.224;2022-11-15T15:48:57;14.00;99.90
957;DHT22;465;48.802;9.224;2022-11-15T15:51:24;14.00;99.90
957;DHT22;465;48.802;9.224;2022-11-15T15:53:51;14.00;99.90
957;DHT22;465;48.802;9.224;2022-11-15T15:56:22;13.90;99.90
957;DHT22;465;48.802;9.224;2022-11-15T15:58:49;13.90;99.90
957;DHT22;465;48.802;9.224;2022-11-15T16:01:18;13.80;99.90
957;DHT22;465;48.802;9.224;2022-11-15T16:03:46;13.80;99.90
957;DHT22;465;48.802;9.224;2022-11-15T16:06:34;13.80;99.90
957;DHT22;465;48.802;9.224;2022-11-15T16:09:01;13.80;99.90
957;DHT22;465;48.802;9.224;2022-11-15T16:11:27;13.70;99.90
957;DHT22;465;48.802;9.224;2022-11-15T16:13:54;13.70;99.90
957;DHT22;465;48.802;9.224;2022-11-15T16:16:21;13.60;99.90
957;DHT22;465;48.802;9.224;2022-11-15T16:18:49;13.60;99.90
957;DHT22;465;48.802;9.224;2022-11-15T16:21:16;13.70;99.90
957;DHT22;465;48.802;9.224;2022-11-15T16:23:43;13.70;99.90
957;DHT22;465;48.802;9.224;2022-11-15T16:26:17;13.70;99.90
957;DHT22;465;48.802;9.224;2022-11-15T16:28:44;13.70;99.90
957;DHT22;465;48.802;9.224;2022-11-15T16:31:12;13.70;99.90
957;DHT22;465;48.802;9.224;2022-11-15T16:33:44;13.60;99.90
957;DHT22;465;48.802;9.224;2022-11-15T16:36:20;13.70;99.90
957;DHT22;465;48.802;9.224;2022-11-15T16:38:47;13.70;99.90
957;DHT22;465;48.802;9.224;2022-11-15T16:41:13;13.70;99.90
957;DHT22;465;48.802;9.224;2022-11-15T16:43:43;13.80;99.90
957;DHT22;465;48.802;9.224;2022-11-15T16:46:13;13.70;99.90
957;DHT22;465;48.802;9.224;2022-11-15T16:48:44;13.80;99.90
957;DHT22;465;48.802;9.224;2022-11-15T16:51:11;13.80;99.90
957;DHT22;465;48.802;9.224;2022-11-15T16:53:44;13.70;99.90
957;DHT22;465;48.802;9.224;2022-11-15T16:56:19;13.80;99.90
957;DHT22;465;48.802;9.224;2022-11-15T16:58:46;13.80;99.90
957;DHT22;465;48.802;9.224;2022-11-15T17:01:17;13.80;99.90
957;DHT22;465;48.802;9.224;2022-11-15T17:03:47;13.90;99.90
957;DHT22;465;48.802;9.224;2022-11-15T17:06:14;13.90;99.90
957;DHT22;465;48.802;9.224;2022-11-15T17:08:44;13.90;99.90
957;DHT22;465;48.802;9.224;2022-11-15T17:11:14;13.90;99.90
957;DHT22;465;48.802;9.224;2022-11-15T17:13:41;13.80;99.90
957;DHT22;465;48.802;9.224;2022-11-15T17:16:10;13.80;99.90
957;DHT22;465;48.802;9.224;2022-11-15T17:18:38;13.80;99.90
957;DHT22;465;48.802;9.224;2022-11-15T17:21:06;13.80;99.90
957;DHT22;465;48.802;9.224;2022-11-15T17:23:33;13.80;99.90
957;DHT22;465;48.802;9.224;2022-11-15T17:26:03;13.80;99.90